Terminal Aerodrome Forecast
Issued by NWS

Home | Current Version | Previous Version | Text Only | Print | Product List | Glossary On
Versions: 1 2 3 4 5 6 7 8 9 10 11 12 13
284
FTUS42 KFFC 221130
TAFPDK
TAF
KPDK 221130Z 2212/2312 07002KT P6SM SCT150
     FM221600 11008G18KT P6SM FEW025 BKN040
     FM230200 13010KT P6SM VCSH BKN025
     FM230800 11010KT 4SM -SHRA BR OVC008=

USA.gov is the U.S. government's official web portal to all federal, state and local government web resources and services.